Time;durP1;ratioP1;P1;durP2;ratioP2;P2;SDS_P1;SDS_P2;PMS_P1;PMS_P2;Temp;Humidity;BMP_temperature;BMP_pressure;BME280_temperature;BME280_humidity;BME280_pressure;Samples;Min_cycle;Max_cycle;Signal;HPM_P1;HPM_P2
2021/12/25 00:00:50;;;;;;;36.67;24.25;;;;;;;7.79;94.54;99237.44;5043681;28;20415;-89
2021/12/25 00:03:16;;;;;;;37.60;24.42;;;;;;;7.80;94.68;99232.88;5062711;28;20403;-90
2021/12/25 00:05:42;;;;;;;43.77;27.73;;;;;;;7.79;94.16;99229.34;5053065;28;20494;-89
2021/12/25 00:08:07;;;;;;;56.40;40.78;;;;;;;7.81;94.34;99231.78;5061086;28;20397;-89
2021/12/25 00:10:33;;;;;;;60.10;44.93;;;;;;;7.81;94.48;99238.00;5044144;28;20402;-89
2021/12/25 00:12:58;;;;;;;73.10;54.30;;;;;;;7.81;94.27;99235.28;5047868;28;20389;-90
2021/12/25 00:15:24;;;;;;;57.92;45.63;;;;;;;7.82;94.51;99238.81;5039488;28;20406;-88
2021/12/25 00:17:49;;;;;;;45.05;33.35;;;;;;;7.82;94.00;99233.41;5051826;28;20406;-89
2021/12/25 00:20:15;;;;;;;45.15;27.98;;;;;;;7.82;94.55;99231.53;5050379;28;20382;-89
2021/12/25 00:22:41;;;;;;;45.30;27.90;;;;;;;7.84;94.45;99236.66;5053583;28;20809;-89
2021/12/25 00:25:07;;;;;;;43.83;27.57;;;;;;;7.85;93.78;99235.59;5036421;28;20414;-89
2021/12/25 00:32:44;;;;;;;48.78;29.83;;;;;;;7.85;94.26;99227.50;5037476;28;20757;-90
2021/12/25 00:35:09;;;;;;;42.67;27.52;;;;;;;7.84;94.10;99229.38;5053503;28;20385;-89
2021/12/25 00:37:35;;;;;;;46.60;26.07;;;;;;;7.84;94.18;99220.47;5055236;28;20405;-89
2021/12/25 00:40:00;;;;;;;51.10;33.80;;;;;;;7.83;93.96;99222.38;5044290;28;20383;-91
2021/12/25 00:42:26;;;;;;;46.00;30.83;;;;;;;7.82;94.25;99220.75;5045793;28;20392;-89
2021/12/25 00:44:52;;;;;;;66.47;39.03;;;;;;;7.83;93.93;99225.09;5037539;28;20394;-89
2021/12/25 00:47:17;;;;;;;77.27;43.47;;;;;;;7.80;93.97;99222.88;5043530;28;20407;-90
2021/12/25 00:49:42;;;;;;;68.87;41.40;;;;;;;7.80;94.16;99224.78;5032536;28;20478;-89
2021/12/25 00:52:08;;;;;;;60.53;35.83;;;;;;;7.80;94.28;99219.38;5041788;28;20402;-89
2021/12/25 00:54:34;;;;;;;67.82;37.60;;;;;;;7.79;94.38;99215.06;5049329;28;20429;-89
2021/12/25 00:56:59;;;;;;;64.95;38.55;;;;;;;7.80;94.21;99216.69;5056126;28;20416;-89
2021/12/25 00:59:24;;;;;;;55.97;31.73;;;;;;;7.78;94.32;99221.50;5065858;28;20432;-90
2021/12/25 01:01:51;;;;;;;57.57;31.90;;;;;;;7.78;94.78;99218.81;5042127;28;20395;-88
2021/12/25 01:04:16;;;;;;;55.43;31.20;;;;;;;7.76;93.94;99216.38;5037056;28;20401;-89
2021/12/25 01:06:41;;;;;;;51.07;30.50;;;;;;;7.77;94.51;99222.59;5047560;28;20506;-89
2021/12/25 01:09:08;;;;;;;58.57;31.57;;;;;;;7.77;94.28;99218.00;5058993;28;20428;-88
2021/12/25 01:11:35;;;;;;;57.83;30.17;;;;;;;7.78;94.86;99224.19;5052939;28;20397;-88
2021/12/25 01:14:08;;;;;;;49.13;28.15;;;;;;;7.76;94.32;99219.09;5038471;28;20396;-88
2021/12/25 01:27:26;;;;;;;69.07;33.47;;;;;;;7.77;94.44;99209.91;5032475;28;20428;-88
2021/12/25 01:30:03;;;;;;;63.20;33.57;;;;;;;7.76;94.18;99213.69;5032527;28;20435;-88
2021/12/25 01:32:59;;;;;;;62.37;32.10;;;;;;;7.76;94.44;99210.16;5034471;28;20435;-87
2021/12/25 01:40:53;;;;;;;72.13;33.63;;;;;;;7.74;93.94;99215.00;5046741;28;20404;-87
2021/12/25 01:48:46;;;;;;;83.00;37.38;;;;;;;7.76;94.08;99211.00;5045442;28;20495;-87
2021/12/25 01:51:12;;;;;;;66.67;34.00;;;;;;;7.76;94.37;99205.59;5052007;28;20990;-86
2021/12/25 01:53:37;;;;;;;77.28;34.65;;;;;;;7.77;94.30;99209.09;5035644;28;20399;-87
2021/12/25 01:56:04;;;;;;;72.60;33.80;;;;;;;7.76;93.98;99205.59;5048200;28;20405;-86
2021/12/25 01:58:29;;;;;;;80.27;36.87;;;;;;;7.75;94.21;99206.66;5051857;28;20850;-86
2021/12/25 02:00:57;;;;;;;91.33;36.00;;;;;;;7.76;94.47;99204.78;5051383;28;20393;-86
2021/12/25 02:03:26;;;;;;;104.05;39.97;;;;;;;7.76;94.55;99204.78;5035758;28;20867;-86
2021/12/25 02:05:52;;;;;;;47.38;27.95;;;;;;;7.75;94.29;99209.34;5035200;28;20428;-87
2021/12/25 02:08:18;;;;;;;81.20;36.28;;;;;;;7.76;94.63;99213.69;5041958;28;20836;-87
2021/12/25 02:10:44;;;;;;;104.18;38.60;;;;;;;7.75;94.39;99200.44;5040047;28;20421;-87
2021/12/25 02:13:11;;;;;;;79.73;34.73;;;;;;;7.75;94.42;99203.16;5034785;28;20477;-87
2021/12/25 02:15:38;;;;;;;83.03;35.30;;;;;;;7.72;94.56;99196.38;5044028;28;20490;-87
2021/12/25 02:18:19;;;;;;;92.80;36.90;;;;;;;7.71;94.41;99194.75;5047292;28;20513;-86
2021/12/25 02:21:02;;;;;;;88.30;37.88;;;;;;;7.71;94.20;99196.63;5050343;28;20394;-87
2021/12/25 02:23:31;;;;;;;99.22;40.05;;;;;;;7.71;94.28;99193.94;5047816;28;20788;-88
2021/12/25 02:25:58;;;;;;;91.03;37.72;;;;;;;7.72;94.34;99193.69;5033671;28;20402;-87
2021/12/25 02:28:25;;;;;;;98.05;38.33;;;;;;;7.73;94.23;99195.31;5038713;28;20471;-87
2021/12/25 02:30:53;;;;;;;85.82;37.75;;;;;;;7.74;94.63;99198.81;5035853;28;20404;-86
2021/12/25 02:33:18;;;;;;;82.77;36.57;;;;;;;7.74;94.50;99206.91;5035317;28;20398;-86
2021/12/25 02:35:45;;;;;;;88.53;38.60;;;;;;;7.74;94.58;99212.28;5064504;28;20749;-86
2021/12/25 02:38:11;;;;;;;103.75;39.85;;;;;;;7.75;94.49;99206.66;5038240;28;20441;-86
2021/12/25 02:40:36;;;;;;;115.40;42.75;;;;;;;7.75;94.80;99193.19;5031562;28;20399;-86
2021/12/25 02:43:02;;;;;;;126.03;45.43;;;;;;;7.75;94.48;99184.25;5036962;28;20484;-86
2021/12/25 02:45:27;;;;;;;122.70;44.58;;;;;;;7.74;94.83;99188.03;5053926;28;20404;-85
2021/12/25 02:47:55;;;;;;;123.47;46.57;;;;;;;7.76;94.92;99185.91;5053197;28;20417;-86
2021/12/25 02:50:29;;;;;;;137.13;44.92;;;;;;;7.75;94.74;99185.09;5037512;28;20399;-87
2021/12/25 02:52:58;;;;;;;156.07;47.75;;;;;;;7.73;95.42;99183.72;5038769;28;20476;-87
2021/12/25 02:55:24;;;;;;;130.43;46.13;;;;;;;7.72;94.88;99187.47;5052488;28;20400;-87
2021/12/25 02:57:52;;;;;;;121.20;44.28;;;;;;;7.71;95.08;99189.34;5043247;28;20421;-86
2021/12/25 03:00:23;;;;;;;126.45;45.85;;;;;;;7.73;95.00;99186.41;5035600;28;20403;-86
2021/12/25 03:02:49;;;;;;;156.40;49.78;;;;;;;7.71;95.04;99183.16;5056012;28;20405;-86
2021/12/25 03:05:15;;;;;;;144.07;48.80;;;;;;;7.71;95.47;99175.06;5046905;28;20408;-86
2021/12/25 03:07:40;;;;;;;149.70;48.58;;;;;;;7.73;95.75;99175.63;5039275;28;20920;-86
2021/12/25 03:10:06;;;;;;;149.85;49.63;;;;;;;7.72;95.66;99169.41;5031029;28;20407;-86
2021/12/25 03:12:38;;;;;;;134.07;47.13;;;;;;;7.71;95.49;99165.09;5032476;28;20430;-86
2021/12/25 03:15:12;;;;;;;158.88;50.88;;;;;;;7.72;95.87;99169.41;5040078;28;20921;-86
2021/12/25 03:17:38;;;;;;;156.98;50.80;;;;;;;7.72;96.00;99169.41;5056310;28;20432;-86
2021/12/25 03:20:06;;;;;;;181.10;52.90;;;;;;;7.70;96.00;99158.09;5038750;28;20958;-86
2021/12/25 03:22:31;;;;;;;169.35;50.80;;;;;;;7.69;96.01;99156.44;5041273;28;20403;-85
2021/12/25 03:24:57;;;;;;;155.40;50.28;;;;;;;7.68;96.05;99149.44;5053060;28;20404;-86
2021/12/25 03:27:22;;;;;;;191.63;53.07;;;;;;;7.69;96.25;99152.94;5043449;28;20402;-86
2021/12/25 03:29:47;;;;;;;186.47;53.57;;;;;;;7.68;96.40;99148.59;5039338;28;20412;-86
2021/12/25 03:32:13;;;;;;;193.20;53.08;;;;;;;7.68;96.42;99152.13;5048967;28;20800;-86
2021/12/25 03:34:38;;;;;;;231.80;57.23;;;;;;;7.67;96.37;99145.09;5044800;28;20399;-86
2021/12/25 03:37:04;;;;;;;193.40;52.63;;;;;;;7.65;96.26;99147.25;5036098;28;20435;-86
2021/12/25 03:39:30;;;;;;;193.38;53.28;;;;;;;7.65;96.72;99149.13;5048671;28;20432;-86
2021/12/25 03:41:57;;;;;;;235.27;57.57;;;;;;;7.64;96.51;99140.22;5047612;28;20404;-86
2021/12/25 03:44:23;;;;;;;150.90;46.28;;;;;;;7.65;96.37;99149.13;5046005;28;20425;-87
2021/12/25 03:46:50;;;;;;;221.75;53.60;;;;;;;7.65;96.80;99139.16;5043780;28;20409;-86
2021/12/25 03:49:27;;;;;;;194.45;49.90;;;;;;;7.65;96.51;99144.56;5060346;28;20405;-86
2021/12/25 04:00:05;;;;;;;171.25;48.45;;;;;;;7.65;96.20;99130.25;5053065;28;20518;-87
2021/12/25 04:02:35;;;;;;;186.32;48.83;;;;;;;7.66;96.16;99135.41;5039482;28;20534;-86
2021/12/25 04:05:04;;;;;;;149.45;46.85;;;;;;;7.67;96.23;99134.31;5043972;28;20415;-86
2021/12/25 04:10:02;;;;;;;148.17;43.77;;;;;;;7.67;96.25;99122.75;5039801;28;20645;-86
2021/12/25 04:12:27;;;;;;;196.63;48.20;;;;;;;7.65;96.17;99128.38;5042649;28;20427;-86
2021/12/25 04:14:53;;;;;;;117.50;42.57;;;;;;;7.66;96.74;99121.91;5046334;28;20468;-86
2021/12/25 04:17:18;;;;;;;145.80;49.10;;;;;;;7.66;95.94;99118.41;5036024;28;20418;-86
2021/12/25 04:19:43;;;;;;;114.60;41.03;;;;;;;7.68;96.06;99118.94;5046776;28;20425;-86
2021/12/25 04:22:16;;;;;;;118.60;43.17;;;;;;;7.70;96.58;99117.66;5051782;28;20420;-87
2021/12/25 04:24:43;;;;;;;140.18;49.70;;;;;;;7.68;96.00;99119.75;5051065;28;20405;-87
2021/12/25 04:27:13;;;;;;;110.22;41.35;;;;;;;7.71;95.83;99119.25;5035583;28;20422;-87
2021/12/25 04:29:45;;;;;;;108.18;40.55;;;;;;;7.72;96.02;99114.66;5051721;28;20390;-87
2021/12/25 05:02:36;;;;;;;128.98;41.80;;;;;;;7.75;95.81;99108.75;5047225;28;20467;-87
2021/12/25 05:05:04;;;;;;;125.30;41.40;;;;;;;7.74;96.22;99107.94;5033790;28;20418;-87
2021/12/25 05:07:30;;;;;;;126.63;42.05;;;;;;;7.73;96.07;99103.63;5042606;28;20414;-86
2021/12/25 05:09:57;;;;;;;132.88;42.63;;;;;;;7.75;96.52;99106.06;5039432;28;20901;-86
2021/12/25 05:12:22;;;;;;;119.30;39.50;;;;;;;7.74;96.27;99105.25;5050700;28;20425;-87
2021/12/25 05:14:47;;;;;;;106.80;39.87;;;;;;;7.72;96.05;99098.50;5043207;28;20490;-87
2021/12/25 05:17:13;;;;;;;117.13;40.67;;;;;;;7.70;95.72;99106.03;5049694;28;20484;-88
2021/12/25 05:19:39;;;;;;;109.97;39.80;;;;;;;7.68;96.75;99106.28;5032963;28;20496;-87
2021/12/25 05:22:04;;;;;;;114.80;39.67;;;;;;;7.69;96.32;99090.91;5031540;28;20415;-87
2021/12/25 05:24:30;;;;;;;103.20;38.50;;;;;;;7.70;96.12;99106.84;5044639;28;20398;-87
2021/12/25 05:26:57;;;;;;;90.40;36.17;;;;;;;7.69;96.59;99104.41;5032238;28;20395;-87
2021/12/25 05:29:24;;;;;;;94.70;37.00;;;;;;;7.70;96.65;99106.84;5039786;28;20391;-88
2021/12/25 05:31:51;;;;;;;91.07;36.10;;;;;;;7.73;96.57;99102.81;5045821;28;20903;-88
2021/12/25 05:34:17;;;;;;;92.07;36.78;;;;;;;7.73;96.62;99110.91;5039156;28;20905;-87
2021/12/25 05:36:42;;;;;;;98.70;37.97;;;;;;;7.73;96.31;99106.34;5043395;28;20420;-89
2021/12/25 05:39:12;;;;;;;93.00;38.53;;;;;;;7.74;96.49;99107.94;5036947;28;20469;-88
2021/12/25 05:41:37;;;;;;;111.78;40.67;;;;;;;7.75;96.46;99109.56;5059468;28;20399;-88
2021/12/25 05:44:02;;;;;;;88.43;36.87;;;;;;;7.76;96.16;99118.47;5049854;28;20722;-88
2021/12/25 05:46:28;;;;;;;89.10;38.30;;;;;;;7.79;96.55;99118.78;5033916;28;20406;-87
2021/12/25 05:48:53;;;;;;;97.17;40.23;;;;;;;7.77;96.08;99106.63;5032259;28;20395;-87
2021/12/25 05:51:19;;;;;;;96.27;39.60;;;;;;;7.79;96.80;99116.09;5040399;28;20398;-88
2021/12/25 05:53:45;;;;;;;102.53;40.83;;;;;;;7.79;96.21;99116.09;5033950;28;20394;-88
2021/12/25 05:56:10;;;;;;;106.13;42.22;;;;;;;7.73;96.70;99117.13;5050615;28;20401;-88
2021/12/25 05:58:36;;;;;;;96.47;41.95;;;;;;;7.74;96.61;99120.59;5041041;28;20415;-88
2021/12/25 06:01:03;;;;;;;105.47;42.87;;;;;;;7.75;96.47;99119.53;5037120;28;20747;-88
2021/12/25 06:03:28;;;;;;;109.88;47.13;;;;;;;7.76;96.44;99121.19;5032932;28;20387;-88
2021/12/25 06:05:54;;;;;;;94.70;40.10;;;;;;;7.74;96.82;99126.81;5046875;28;20467;-88
2021/12/25 06:08:19;;;;;;;102.37;42.97;;;;;;;7.76;96.55;99131.97;5039277;28;20485;-87
2021/12/25 06:10:46;;;;;;;99.20;41.93;;;;;;;7.74;96.60;99134.09;5047557;28;20412;-88
2021/12/25 06:13:16;;;;;;;98.00;41.63;;;;;;;7.71;96.99;99132.72;5034043;28;20414;-87
2021/12/25 06:15:42;;;;;;;96.30;41.40;;;;;;;7.71;96.64;99129.22;5035909;28;20467;-88
2021/12/25 06:18:09;;;;;;;89.70;41.17;;;;;;;7.74;96.22;99134.09;5040265;28;20405;-87
2021/12/25 06:20:35;;;;;;;100.93;42.05;;;;;;;7.75;96.22;99131.16;5041918;28;20454;-88
2021/12/25 06:23:00;;;;;;;95.18;41.75;;;;;;;7.71;96.19;99131.91;5046562;28;20400;-89
2021/12/25 06:25:25;;;;;;;83.27;39.43;;;;;;;7.67;96.46;99139.69;5037351;28;20433;-87
2021/12/25 06:27:51;;;;;;;95.77;41.20;;;;;;;7.69;96.93;99136.75;5046179;28;20482;-87
2021/12/25 06:30:16;;;;;;;89.93;41.22;;;;;;;7.70;96.38;99141.09;5029848;28;20766;-88
2021/12/25 06:32:41;;;;;;;91.50;41.20;;;;;;;7.72;96.27;99133.53;5030064;28;20395;-87
2021/12/25 06:35:07;;;;;;;87.90;40.00;;;;;;;7.71;96.57;99137.31;5046588;28;20477;-87
2021/12/25 06:37:33;;;;;;;89.45;39.30;;;;;;;7.70;96.34;99141.91;5031383;28;20391;-88
2021/12/25 06:39:58;;;;;;;90.20;38.80;;;;;;;7.72;96.37;99142.44;5047454;28;20550;-87
2021/12/25 06:42:24;;;;;;;93.23;40.43;;;;;;;7.70;96.76;99144.59;5053481;28;20412;-87
2021/12/25 06:44:49;;;;;;;84.95;39.25;;;;;;;7.72;96.62;99137.06;5034543;28;20488;-87
2021/12/25 06:47:15;;;;;;;87.27;39.53;;;;;;;7.69;96.42;99144.84;5049434;28;20433;-86
2021/12/25 06:49:40;;;;;;;93.60;39.03;;;;;;;7.67;96.62;99144.31;5051449;28;20397;-87
2021/12/25 06:52:06;;;;;;;84.90;38.00;;;;;;;7.68;96.48;99151.31;5048974;28;20409;-87
2021/12/25 06:54:31;;;;;;;81.18;38.78;;;;;;;7.68;96.60;99149.44;5048150;28;20415;-87
2021/12/25 06:56:57;;;;;;;92.53;40.90;;;;;;;7.70;96.52;99147.31;5033996;28;20395;-87
2021/12/25 06:59:22;;;;;;;85.60;38.13;;;;;;;7.70;96.16;99144.59;5038738;28;20417;-87
2021/12/25 07:01:49;;;;;;;85.70;38.33;;;;;;;7.72;96.52;99150.53;5049900;28;20442;-88
2021/12/25 07:04:14;;;;;;;81.05;38.38;;;;;;;7.70;96.56;99150.00;5046949;28;20397;-87
2021/12/25 07:06:40;;;;;;;77.43;37.83;;;;;;;7.70;96.81;99150.00;5047947;28;20493;-88
2021/12/25 07:09:06;;;;;;;78.68;36.63;;;;;;;7.70;96.91;99154.56;5033005;28;20416;-87
2021/12/25 07:11:32;;;;;;;77.20;36.63;;;;;;;7.70;96.42;99157.28;5045133;28;20852;-88
2021/12/25 07:14:00;;;;;;;84.50;37.38;;;;;;;7.68;96.81;99154.00;5044545;28;20414;-88
2021/12/25 07:16:26;;;;;;;91.47;36.70;;;;;;;7.70;96.73;99157.28;5046556;28;20398;-87
2021/12/25 07:18:51;;;;;;;73.40;35.73;;;;;;;7.70;96.58;99165.38;5040595;28;20421;-88
2021/12/25 07:21:16;;;;;;;79.95;37.28;;;;;;;7.70;96.64;99163.47;5049830;28;20485;-88
2021/12/25 07:23:42;;;;;;;83.23;37.53;;;;;;;7.74;96.73;99161.88;5040619;28;20391;-87
2021/12/25 07:26:07;;;;;;;76.07;36.38;;;;;;;7.75;96.30;99168.91;5036101;28;20405;-88
2021/12/25 07:28:34;;;;;;;84.67;36.80;;;;;;;7.74;96.67;99169.16;5061208;28;20409;-88
2021/12/25 07:31:00;;;;;;;86.72;38.15;;;;;;;7.71;96.52;99167.78;5065041;28;20459;-86
2021/12/25 07:33:26;;;;;;;74.00;36.92;;;;;;;7.75;96.34;99168.91;5041793;28;20720;-86
2021/12/25 07:35:52;;;;;;;83.87;38.13;;;;;;;7.79;96.12;99177.28;5045754;28;20402;-86
2021/12/25 07:38:18;;;;;;;81.17;37.60;;;;;;;7.80;96.72;99181.63;5034303;28;20430;-85
2021/12/25 07:40:44;;;;;;;66.47;34.42;;;;;;;7.79;96.37;99180.00;5036387;28;20488;-87
2021/12/25 07:43:10;;;;;;;80.73;37.83;;;;;;;7.82;96.53;99179.47;5042424;28;20431;-86
2021/12/25 07:45:36;;;;;;;76.27;35.73;;;;;;;7.82;96.24;99187.56;5036578;28;20419;-87
2021/12/25 07:48:03;;;;;;;70.13;36.92;;;;;;;7.78;96.23;99192.66;5042911;28;20417;-89
2021/12/25 07:50:33;;;;;;;74.63;37.30;;;;;;;7.82;96.43;99188.38;5049767;28;20786;-87
2021/12/25 07:52:58;;;;;;;75.90;35.33;;;;;;;7.83;96.35;99186.50;5050420;28;20405;-88
2021/12/25 07:55:25;;;;;;;74.18;34.67;;;;;;;7.84;96.21;99190.81;5048324;28;20411;-90
2021/12/25 07:57:50;;;;;;;67.80;33.92;;;;;;;7.86;95.97;99190.56;5039562;28;20422;-86
2021/12/25 08:00:17;;;;;;;72.68;33.90;;;;;;;7.88;96.45;99193.81;5045110;28;20409;-90
2021/12/25 08:02:44;;;;;;;70.45;33.40;;;;;;;7.89;96.35;99201.66;5063948;28;20416;-87
2021/12/25 08:05:10;;;;;;;61.73;30.77;;;;;;;7.90;95.97;99199.78;5056938;28;20406;-90
2021/12/25 08:07:36;;;;;;;72.35;33.20;;;;;;;7.93;95.79;99197.38;5050271;28;20903;-88
2021/12/25 08:10:12;;;;;;;65.75;32.40;;;;;;;7.97;95.77;99200.38;5040757;28;20430;-89
2021/12/25 08:12:43;;;;;;;62.05;30.42;;;;;;;7.96;96.16;99201.44;5041821;28;20486;-91
2021/12/25 08:15:10;;;;;;;56.72;29.75;;;;;;;7.95;96.25;99207.88;5045999;28;20428;-88
2021/12/25 08:17:36;;;;;;;71.90;32.80;;;;;;;7.98;96.05;99208.19;5039521;28;20408;-89
2021/12/25 08:20:01;;;;;;;55.35;30.25;;;;;;;8.00;96.16;99199.84;5038182;28;20416;-88
2021/12/25 08:22:27;;;;;;;57.53;29.20;;;;;;;8.00;96.26;99203.34;5039951;28;20423;-86
2021/12/25 08:24:52;;;;;;;58.73;28.93;;;;;;;8.04;95.85;99209.03;5041320;28;20428;-88
2021/12/25 08:27:18;;;;;;;56.37;31.33;;;;;;;8.05;95.75;99213.38;5043135;28;21092;-88
2021/12/25 08:29:44;;;;;;;59.73;31.57;;;;;;;8.03;96.05;99212.81;5044621;28;20409;-87
2021/12/25 08:32:09;;;;;;;56.25;29.02;;;;;;;8.03;96.04;99215.53;5042329;28;20412;-88
2021/12/25 08:34:37;;;;;;;56.00;29.00;;;;;;;8.06;95.99;99205.03;5044812;28;20413;-91
2021/12/25 08:37:03;;;;;;;51.45;28.25;;;;;;;8.06;95.72;99215.81;5037583;28;20500;-88
2021/12/25 08:39:28;;;;;;;52.17;28.40;;;;;;;8.09;95.49;99215.31;5039987;28;20624;-90
2021/12/25 08:42:00;;;;;;;51.80;27.90;;;;;;;8.12;95.49;99213.97;5038090;28;20436;-89
2021/12/25 08:44:53;;;;;;;52.63;30.27;;;;;;;8.21;95.52;99223.19;5038417;28;20401;-89
2021/12/25 08:47:20;;;;;;;52.35;28.63;;;;;;;8.25;95.28;99227.81;5039149;28;20496;-90
2021/12/25 08:49:46;;;;;;;53.25;26.15;;;;;;;8.25;95.15;99227.00;5033538;28;20730;-89
2021/12/25 08:52:15;;;;;;;50.13;25.77;;;;;;;8.24;95.11;99234.28;5041455;28;20912;-90
2021/12/25 08:54:42;;;;;;;45.47;24.88;;;;;;;8.21;95.62;99231.28;5044138;28;20472;-90
2021/12/25 08:57:09;;;;;;;42.80;23.20;;;;;;;8.25;95.54;99229.69;5042829;28;20505;-89
2021/12/25 08:59:38;;;;;;;42.63;24.53;;;;;;;8.24;94.99;99230.78;5050909;28;20423;-88
2021/12/25 09:02:08;;;;;;;38.60;23.63;;;;;;;8.25;95.54;99230.53;5047846;28;20925;-91
2021/12/25 09:04:36;;;;;;;39.17;23.38;;;;;;;8.25;95.29;99241.31;5038979;28;20391;-91
2021/12/25 09:07:02;;;;;;;44.10;24.63;;;;;;;8.28;95.45;99238.13;5039890;28;20459;-87
2021/12/25 09:09:27;;;;;;;44.67;23.90;;;;;;;8.27;95.14;99239.16;5037558;28;20464;-89
2021/12/25 09:11:53;;;;;;;46.28;24.75;;;;;;;8.31;94.93;99239.50;5051922;28;20425;-89
2021/12/25 09:14:18;;;;;;;46.57;24.60;;;;;;;8.34;95.39;99247.88;5040121;28;20440;-89
2021/12/25 09:16:43;;;;;;;34.80;21.92;;;;;;;8.44;95.18;99249.03;5054573;28;20406;-91
2021/12/25 09:19:09;;;;;;;40.53;22.93;;;;;;;8.41;95.03;99252.25;5051749;28;20504;-91
2021/12/25 09:21:34;;;;;;;32.60;19.40;;;;;;;8.50;94.74;99256.06;5039973;28;21094;-89
2021/12/25 09:24:00;;;;;;;33.88;21.88;;;;;;;8.58;95.02;99252.91;5048716;28;20768;-87
2021/12/25 09:26:25;;;;;;;35.63;22.07;;;;;;;8.71;94.20;99255.13;5054079;28;20476;-86
2021/12/25 09:28:50;;;;;;;36.10;21.97;;;;;;;8.68;94.09;99251.06;5040727;28;20410;-89
2021/12/25 09:31:16;;;;;;;32.97;20.23;;;;;;;8.74;94.06;99255.44;5041756;28;20403;-90
2021/12/25 09:33:42;;;;;;;30.50;18.67;;;;;;;8.72;94.23;99256.78;5036788;28;20415;-88
2021/12/25 09:36:07;;;;;;;29.60;19.23;;;;;;;8.75;93.90;99258.94;5048714;28;20401;-89
2021/12/25 09:38:34;;;;;;;31.97;18.43;;;;;;;8.81;93.68;99258.72;5049069;28;20505;-90
2021/12/25 09:41:02;;;;;;;33.55;18.23;;;;;;;8.91;93.65;99259.81;5049542;28;20813;-90
2021/12/25 09:43:27;;;;;;;28.88;18.05;;;;;;;8.97;93.00;99269.59;5049026;28;20394;-90
2021/12/25 09:45:54;;;;;;;26.20;17.90;;;;;;;9.02;93.22;99261.50;5047995;28;20880;-89
2021/12/25 09:48:19;;;;;;;28.08;18.48;;;;;;;9.00;93.13;99260.94;5043152;28;20422;-86
2021/12/25 09:50:45;;;;;;;27.27;15.95;;;;;;;8.92;93.29;99269.56;5041484;28;20807;-89
2021/12/25 09:53:13;;;;;;;26.35;16.23;;;;;;;8.89;93.25;99270.09;5036113;28;20406;-89
2021/12/25 09:55:39;;;;;;;27.88;18.13;;;;;;;8.88;93.23;99271.16;5040556;28;20729;-89
2021/12/25 09:58:05;;;;;;;30.50;18.93;;;;;;;8.98;93.24;99263.94;5046123;28;20420;-89
2021/12/25 10:00:34;;;;;;;27.70;18.23;;;;;;;8.97;93.13;99265.00;5036291;28;20447;-89
2021/12/25 10:02:59;;;;;;;37.97;19.85;;;;;;;9.02;92.85;99270.44;5036110;28;20411;-88
2021/12/25 10:05:38;;;;;;;28.47;19.13;;;;;;;8.96;92.60;99263.34;5037874;28;20758;-89
2021/12/25 10:08:12;;;;;;;27.30;18.07;;;;;;;8.97;92.76;99259.59;5043386;28;20568;-89
2021/12/25 10:10:51;;;;;;;25.55;17.55;;;;;;;9.03;92.83;99261.22;5046643;28;20504;-88
2021/12/25 10:13:23;;;;;;;24.75;16.08;;;;;;;9.04;92.74;99252.06;5034760;28;20450;-88
2021/12/25 10:15:51;;;;;;;29.73;18.05;;;;;;;9.03;93.08;99245.03;5045551;28;20471;-89
2021/12/25 10:18:24;;;;;;;23.52;15.55;;;;;;;9.19;93.01;99241.28;5045827;28;20405;-89
2021/12/25 10:20:50;;;;;;;21.85;15.93;;;;;;;9.31;92.34;99241.91;5040773;28;20790;-89
2021/12/25 10:23:25;;;;;;;22.67;15.87;;;;;;;9.44;92.05;99237.88;5045998;28;20496;-89
2021/12/25 10:25:55;;;;;;;19.20;14.30;;;;;;;9.67;91.63;99240.06;5038147;28;20397;-89
2021/12/25 10:28:26;;;;;;;20.67;15.10;;;;;;;9.72;91.37;99241.97;5033496;28;20415;-89
2021/12/25 10:30:54;;;;;;;18.10;14.10;;;;;;;9.80;91.07;99250.38;5041655;28;20410;-90
2021/12/25 10:33:41;;;;;;;20.38;16.27;;;;;;;9.78;90.56;99247.09;5044859;28;20410;-89
2021/12/25 10:36:27;;;;;;;19.73;14.45;;;;;;;9.63;90.74;99251.69;5031621;28;20872;-89
2021/12/25 10:38:58;;;;;;;18.60;13.98;;;;;;;9.62;90.89;99244.66;5060019;28;20421;-90
2021/12/25 10:41:24;;;;;;;22.60;15.63;;;;;;;9.59;91.09;99240.59;5041839;28;20419;-90
2021/12/25 10:43:52;;;;;;;17.80;13.30;;;;;;;9.53;91.01;99243.56;5041433;28;20539;-89
2021/12/25 10:46:19;;;;;;;18.73;14.23;;;;;;;9.60;91.02;99244.13;5033755;28;20402;-88
2021/12/25 10:48:48;;;;;;;18.73;13.40;;;;;;;9.65;90.86;99244.13;5058554;28;20462;-90
2021/12/25 10:51:30;;;;;;;16.73;12.68;;;;;;;9.67;90.75;99237.38;5038067;28;20411;-87
2021/12/25 10:53:57;;;;;;;14.57;12.38;;;;;;;9.78;90.33;99238.19;5035226;28;20403;-89
2021/12/25 10:56:22;;;;;;;17.00;13.23;;;;;;;9.87;90.00;99234.69;5034547;28;20902;-88
2021/12/25 10:58:48;;;;;;;17.03;13.73;;;;;;;9.96;89.61;99234.94;5036241;28;20408;-87
2021/12/25 11:01:16;;;;;;;16.80;13.85;;;;;;;9.91;89.57;99240.38;5051153;28;20760;-89
2021/12/25 11:03:44;;;;;;;15.65;13.10;;;;;;;9.80;89.93;99238.72;5044330;28;20885;-87
2021/12/25 11:06:17;;;;;;;18.17;13.25;;;;;;;9.76;90.08;99245.75;5039321;28;20421;-88
2021/12/25 11:08:44;;;;;;;18.35;13.20;;;;;;;9.87;89.69;99231.16;5042408;28;20934;-87
2021/12/25 11:11:19;;;;;;;20.13;12.80;;;;;;;9.88;89.50;99225.47;5047075;28;20397;-87
2021/12/25 11:13:45;;;;;;;17.00;13.65;;;;;;;9.82;89.51;99231.97;5045847;28;20395;-89
2021/12/25 11:16:27;;;;;;;15.82;12.63;;;;;;;9.72;89.67;99237.38;5036302;28;20889;-90
2021/12/25 11:19:16;;;;;;;21.23;15.07;;;;;;;9.71;89.77;99240.34;5034598;28;20429;-88
2021/12/25 11:21:44;;;;;;;21.15;15.80;;;;;;;9.60;90.06;99231.41;5038692;28;20403;-88
2021/12/25 11:24:22;;;;;;;20.17;14.80;;;;;;;9.50;90.43;99230.56;5042554;28;20413;-87
2021/12/25 11:26:50;;;;;;;24.75;16.52;;;;;;;9.45;90.64;99231.34;5045703;28;20420;-87
2021/12/25 11:29:20;;;;;;;29.40;17.38;;;;;;;9.39;90.66;99224.31;5038896;28;20932;-87
2021/12/25 11:31:48;;;;;;;26.42;17.70;;;;;;;9.42;90.80;99225.69;5036775;28;20484;-89
2021/12/25 11:34:14;;;;;;;27.58;17.50;;;;;;;9.38;91.19;99226.19;5041246;28;20472;-90
2021/12/25 11:36:45;;;;;;;31.90;18.73;;;;;;;9.49;90.67;99223.53;5050916;28;20482;-88
2021/12/25 11:39:11;;;;;;;22.08;15.90;;;;;;;9.55;90.44;99225.19;5037225;28;20437;-85
2021/12/25 11:41:38;;;;;;;21.08;15.05;;;;;;;9.63;90.40;99213.81;5039818;28;20414;-90
2021/12/25 11:44:07;;;;;;;17.00;13.93;;;;;;;9.70;90.08;99217.91;5041071;28;20425;-88
2021/12/25 11:46:41;;;;;;;21.38;14.93;;;;;;;9.75;89.75;99217.06;5048019;28;20442;-88
2021/12/25 11:49:09;;;;;;;22.25;15.70;;;;;;;9.71;89.68;99206.00;5047141;28;20397;-89
2021/12/25 11:51:39;;;;;;;24.35;16.50;;;;;;;9.62;89.83;99209.47;5041587;28;20492;-89
2021/12/25 11:54:28;;;;;;;27.75;18.17;;;;;;;9.56;90.49;99213.25;5037047;28;20463;-88
2021/12/25 11:59:50;;;;;;;30.90;20.38;;;;;;;9.58;90.50;99206.50;5024700;28;20490;-89
2021/12/25 12:02:39;;;;;;;25.38;17.40;;;;;;;9.63;90.26;99203.81;5035544;28;20407;-87
2021/12/25 12:05:27;;;;;;;21.15;14.38;;;;;;;9.57;90.22;99207.59;5048420;28;20418;-89
2021/12/25 12:08:03;;;;;;;24.52;15.55;;;;;;;9.55;90.55;99212.44;5040604;28;21205;-89
2021/12/25 12:10:46;;;;;;;18.30;12.70;;;;;;;9.55;90.06;99200.84;5041886;28;20409;-88
2021/12/25 12:13:22;;;;;;;19.92;15.00;;;;;;;9.56;90.22;99210.56;5036373;28;20415;-87
2021/12/25 12:15:53;;;;;;;21.33;16.10;;;;;;;9.54;90.12;99210.03;5036566;28;20445;-89
2021/12/25 12:18:25;;;;;;;22.45;15.10;;;;;;;9.51;90.35;99210.56;5044530;28;20403;-87
2021/12/25 12:20:52;;;;;;;19.50;14.27;;;;;;;9.49;90.29;99215.41;5042239;28;20470;-87
2021/12/25 12:26:08;;;;;;;17.63;12.93;;;;;;;9.42;90.46;99223.00;5050309;28;20455;-86
2021/12/25 12:28:43;;;;;;;19.77;14.43;;;;;;;9.38;90.83;99215.38;5039403;28;20399;-88
2021/12/25 12:31:40;;;;;;;20.15;13.93;;;;;;;9.35;90.72;99213.22;5036321;28;20397;-88
2021/12/25 12:34:32;;;;;;;17.73;13.77;;;;;;;9.35;91.09;99215.13;5049247;28;20405;-88
2021/12/25 12:37:19;;;;;;;17.50;13.30;;;;;;;9.43;90.73;99213.78;5048007;28;20455;-83
2021/12/25 12:39:59;;;;;;;14.00;12.25;;;;;;;9.51;90.50;99216.78;5040611;28;20452;-84
2021/12/25 12:42:43;;;;;;;20.35;14.32;;;;;;;9.56;90.08;99213.25;5046520;28;20413;-86